createdAt,value
2022-10-14T00:02:07.412Z,32.50
2022-10-14T00:07:15.406Z,32.97
2022-10-14T00:12:23.972Z,32.00
2022-10-14T00:17:32.018Z,30.90
2022-10-14T00:22:39.930Z,30.97
2022-10-14T00:27:47.786Z,31.67
2022-10-14T00:32:55.976Z,32.27
2022-10-14T00:38:03.973Z,32.40
2022-10-14T00:43:15.886Z,33.57
2022-10-14T00:48:25.615Z,34.60
2022-10-14T00:53:33.636Z,32.00
2022-10-14T00:58:41.524Z,32.57
2022-10-14T01:03:49.790Z,31.03
2022-10-14T01:09:00.809Z,28.33
2022-10-14T01:19:26.875Z,28.40
2022-10-14T01:24:38.267Z,29.83
2022-10-14T01:29:51.610Z,25.67
2022-10-14T01:35:02.880Z,25.83
2022-10-14T01:40:13.595Z,26.43
2022-10-14T01:45:22.856Z,26.37
2022-10-14T01:50:30.685Z,27.77
2022-10-14T01:55:42.767Z,29.20
2022-10-14T02:00:50.952Z,28.43
2022-10-14T02:06:01.858Z,28.00
2022-10-14T02:11:14.333Z,27.37
2022-10-14T02:16:25.479Z,28.57
2022-10-14T02:21:36.537Z,28.53
2022-10-14T02:26:44.345Z,28.20
2022-10-14T02:31:53.275Z,26.40
2022-10-14T02:37:01.355Z,29.73
2022-10-14T02:42:09.220Z,28.40
2022-10-14T02:47:17.050Z,25.20
2022-10-14T02:52:26.018Z,26.60
2022-10-14T02:57:35.746Z,22.97
2022-10-14T03:02:43.791Z,25.53
2022-10-14T03:07:51.760Z,27.40
2022-10-14T03:13:00.177Z,24.00
2022-10-14T03:18:08.158Z,24.43
2022-10-14T03:23:16.030Z,22.50
2022-10-14T03:28:24.012Z,23.13
2022-10-14T03:33:33.869Z,22.93
2022-10-14T03:38:42.775Z,27.90
2022-10-14T03:43:50.590Z,28.97
2022-10-14T03:48:58.462Z,29.90
2022-10-14T03:54:07.509Z,31.47
2022-10-14T03:59:15.658Z,27.53
2022-10-14T04:04:23.468Z,27.30
2022-10-14T04:09:31.411Z,29.93
2022-10-14T04:14:39.494Z,28.07
2022-10-14T04:19:47.443Z,25.13
2022-10-14T04:24:55.263Z,26.27
2022-10-14T04:30:04.024Z,31.87
2022-10-14T04:35:12.203Z,30.03
2022-10-14T04:40:20.843Z,28.63
2022-10-14T04:45:30.539Z,25.67
2022-10-14T04:50:38.471Z,29.20
2022-10-14T04:55:47.592Z,28.97
2022-10-14T05:00:56.020Z,30.90
2022-10-14T05:06:04.023Z,28.13
2022-10-14T05:11:11.856Z,31.03
2022-10-14T05:16:19.863Z,30.40
2022-10-14T05:21:28.383Z,28.77
2022-10-14T05:26:36.257Z,25.63
2022-10-14T05:31:44.172Z,32.53
2022-10-14T05:36:52.152Z,30.10
2022-10-14T05:42:00.108Z,26.03
2022-10-14T05:47:10.876Z,25.20
2022-10-14T05:52:19.668Z,27.73
2022-10-14T05:57:37.825Z,30.00
2022-10-14T06:02:46.638Z,30.90
2022-10-14T06:07:54.660Z,31.90
2022-10-14T06:13:03.161Z,31.87
2022-10-14T06:18:11.493Z,27.97
2022-10-14T06:23:19.425Z,35.57
2022-10-14T06:28:27.779Z,32.60
2022-10-14T06:33:35.713Z,31.10
2022-10-14T06:38:43.605Z,33.40
2022-10-14T06:43:51.561Z,35.73
2022-10-14T06:49:00.538Z,29.33
2022-10-14T06:54:08.323Z,34.13
2022-10-14T06:59:16.169Z,29.87
2022-10-14T07:04:24.186Z,34.30
2022-10-14T07:09:32.632Z,33.70
2022-10-14T07:14:40.633Z,30.27
2022-10-14T07:19:49.216Z,33.77
2022-10-14T07:24:57.087Z,32.53
2022-10-14T07:30:06.716Z,33.37
2022-10-14T07:35:14.677Z,32.80
2022-10-14T07:40:23.959Z,33.83
2022-10-14T07:45:33.487Z,34.60
2022-10-14T07:50:42.052Z,30.10
2022-10-14T07:55:51.699Z,31.10
2022-10-14T08:00:59.931Z,27.63
2022-10-14T08:06:08.091Z,27.57
2022-10-14T08:11:19.385Z,28.57
2022-10-14T08:16:29.137Z,26.63
2022-10-14T08:21:37.077Z,27.33
2022-10-14T08:26:48.018Z,25.53
2022-10-14T08:31:56.635Z,26.23
2022-10-14T08:37:04.791Z,26.70
2022-10-14T08:42:16.526Z,23.13
2022-10-14T08:47:27.185Z,22.37
2022-10-14T08:52:38.288Z,22.83
2022-10-14T08:57:49.445Z,25.40
2022-10-14T09:02:58.359Z,21.63
2022-10-14T09:08:06.897Z,24.18
2022-10-14T09:13:19.499Z,24.43
2022-10-14T09:18:30.102Z,25.17
2022-10-14T09:23:38.179Z,23.87
2022-10-14T09:28:46.563Z,20.00
2022-10-14T09:33:54.531Z,21.20
2022-10-14T09:39:05.502Z,16.70
2022-10-14T09:44:17.086Z,16.73
2022-10-14T09:49:28.125Z,17.73
2022-10-14T09:54:36.048Z,16.77
2022-10-14T09:59:47.152Z,17.73
2022-10-14T10:04:57.205Z,17.50
2022-10-14T10:10:08.157Z,18.13
2022-10-14T10:15:19.455Z,18.90
2022-10-14T10:20:31.254Z,16.87
2022-10-14T10:30:57.293Z,17.27
2022-10-14T10:36:09.305Z,15.50
2022-10-14T10:41:22.178Z,16.33
2022-10-14T10:46:33.791Z,15.23
2022-10-14T10:51:45.890Z,14.40
2022-10-14T10:56:57.780Z,14.73
2022-10-14T11:02:14.105Z,13.37
2022-10-14T11:07:28.098Z,14.63
2022-10-14T11:12:42.488Z,14.00
2022-10-14T11:17:55.467Z,14.17
2022-10-14T11:23:06.799Z,14.13
2022-10-14T11:33:39.769Z,11.23
2022-10-14T11:39:09.893Z,12.63
2022-10-14T11:44:21.094Z,13.10
2022-10-14T11:49:32.834Z,14.33
2022-10-14T11:54:43.959Z,12.53
2022-10-14T11:59:55.057Z,11.90
2022-10-14T12:10:20.089Z,12.70
2022-10-14T12:15:28.351Z,11.50
2022-10-14T12:25:52.588Z,10.67
2022-10-14T12:31:04.058Z,10.87
2022-10-14T12:36:15.556Z,12.10
2022-10-14T12:41:29.045Z,10.60
2022-10-14T12:46:40.398Z,10.57
2022-10-14T12:51:51.409Z,10.33
2022-10-14T13:07:40.117Z,10.90
2022-10-14T13:12:46.895Z,9.53
2022-10-14T13:18:10.069Z,9.83
2022-10-14T13:23:21.393Z,10.07
2022-10-14T13:28:36.931Z,10.57
2022-10-14T13:33:48.237Z,10.27
2022-10-14T13:38:59.325Z,10.17
2022-10-14T13:44:08.402Z,10.77
2022-10-14T13:49:19.871Z,9.47
2022-10-14T13:54:29.032Z,8.57
2022-10-14T13:59:44.301Z,8.43
2022-10-14T14:04:51.907Z,7.83
2022-10-14T14:10:02.363Z,8.43
2022-10-14T14:15:14.473Z,6.90
2022-10-14T14:20:24.058Z,7.27
2022-10-14T15:37:57.591Z,7.00
2022-10-14T15:43:07.288Z,6.87
2022-10-14T15:48:18.684Z,9.13
2022-10-14T15:53:27.921Z,9.40
2022-10-14T15:58:35.728Z,10.83
2022-10-14T16:03:43.753Z,11.17
2022-10-14T16:08:53.998Z,12.00
2022-10-14T16:14:01.934Z,11.43
2022-10-14T16:19:10.903Z,11.93
2022-10-14T16:24:20.568Z,12.70
2022-10-14T16:29:29.445Z,12.57
2022-10-14T16:34:38.274Z,11.60
2022-10-14T16:39:46.568Z,26.73
2022-10-14T16:44:54.487Z,22.73
2022-10-14T16:50:02.873Z,27.17
2022-10-14T16:55:10.796Z,28.67
2022-10-14T17:05:28.348Z,25.37
2022-10-14T17:10:37.236Z,23.40
2022-10-14T17:15:45.189Z,18.90
2022-10-14T17:20:56.285Z,19.40
2022-10-14T17:26:05.390Z,17.30
2022-10-14T17:31:16.485Z,16.97
2022-10-14T17:36:28.118Z,17.33
2022-10-14T17:41:37.083Z,24.47
2022-10-14T17:46:45.923Z,25.10
2022-10-14T17:51:54.343Z,23.03
2022-10-14T17:57:02.256Z,23.70
2022-10-14T18:02:14.012Z,22.93
2022-10-14T18:07:23.589Z,24.10
2022-10-14T18:12:32.010Z,22.57
2022-10-14T18:17:44.580Z,27.80
2022-10-14T18:22:52.879Z,28.20
2022-10-14T18:28:01.246Z,25.73
2022-10-14T18:33:09.760Z,24.00
2022-10-14T18:38:18.424Z,25.10
2022-10-14T18:43:27.840Z,28.33
2022-10-14T18:48:35.806Z,27.10
2022-10-14T18:53:45.297Z,26.43
2022-10-14T18:58:55.825Z,26.07
2022-10-14T19:04:06.289Z,24.57
2022-10-14T19:09:15.664Z,25.03
2022-10-14T19:14:23.940Z,26.12
2022-10-14T19:19:31.801Z,27.13
2022-10-14T19:24:47.264Z,26.30
2022-10-14T19:29:55.926Z,24.57
2022-10-14T19:35:05.334Z,26.23
2022-10-14T19:40:13.790Z,23.67
2022-10-14T19:45:24.166Z,27.60
2022-10-14T19:50:34.170Z,32.20
2022-10-14T19:55:43.300Z,33.00
2022-10-14T20:00:52.062Z,27.00
2022-10-14T20:06:05.104Z,26.43
2022-10-14T20:11:15.373Z,27.40
2022-10-14T20:16:23.471Z,28.80
2022-10-14T20:21:32.083Z,26.63
2022-10-14T20:26:40.373Z,24.87
2022-10-14T20:31:49.397Z,22.20
2022-10-14T20:36:57.349Z,19.77
2022-10-14T20:42:10.345Z,19.47
2022-10-14T20:47:22.065Z,19.17
2022-10-14T20:52:30.744Z,17.10
2022-10-14T20:57:38.866Z,17.00
2022-10-14T21:02:46.846Z,21.63
2022-10-14T21:07:54.976Z,27.03
2022-10-14T21:13:09.942Z,23.37
2022-10-14T21:18:18.941Z,22.30
2022-10-14T21:23:26.897Z,20.10
2022-10-14T21:28:35.382Z,23.50
2022-10-14T21:33:43.306Z,23.57
2022-10-14T21:38:57.329Z,22.87
2022-10-14T21:44:05.547Z,23.07
2022-10-14T21:49:13.636Z,23.40
2022-10-14T21:54:23.744Z,22.63
2022-10-14T21:59:33.031Z,23.27
2022-10-14T22:04:43.310Z,21.20
2022-10-14T22:09:52.428Z,22.20
2022-10-14T22:20:10.417Z,22.37
2022-10-14T22:25:18.953Z,22.00
2022-10-14T22:30:28.828Z,20.73
2022-10-14T22:35:36.944Z,21.10
2022-10-14T22:40:44.866Z,22.50
2022-10-14T22:45:55.862Z,22.63
2022-10-14T22:51:07.948Z,22.63
2022-10-14T22:56:17.430Z,22.93
2022-10-14T23:01:27.137Z,24.10
2022-10-14T23:06:35.450Z,22.43
2022-10-14T23:11:43.386Z,23.87
2022-10-14T23:16:52.227Z,24.70
2022-10-14T23:22:00.050Z,23.60
2022-10-14T23:27:07.875Z,22.83
2022-10-14T23:32:15.813Z,28.70
2022-10-14T23:37:24.343Z,25.17
2022-10-14T23:42:32.749Z,27.20
2022-10-14T23:47:40.584Z,24.53
2022-10-14T23:52:48.539Z,24.70
2022-10-14T23:57:56.381Z,25.60
